sensor_id;sensor_type;location;lat;lon;timestamp;P1;durP1;ratioP1;P2;durP2;ratioP2
23676;SDS011;31493;49.058;12.190;2023-05-06T00:00:20;23.83;;;18.67;;
23676;SDS011;31493;49.058;12.190;2023-05-06T00:02:47;20.52;;;18.33;;
23676;SDS011;31493;49.058;12.190;2023-05-06T00:05:16;20.67;;;18.48;;
23676;SDS011;31493;49.058;12.190;2023-05-06T00:07:43;24.75;;;18.40;;
23676;SDS011;31493;49.058;12.190;2023-05-06T00:10:10;23.42;;;16.02;;
23676;SDS011;31493;49.058;12.190;2023-05-06T00:12:38;18.27;;;14.73;;
23676;SDS011;31493;49.058;12.190;2023-05-06T00:15:05;15.43;;;13.55;;
23676;SDS011;31493;49.058;12.190;2023-05-06T00:17:33;17.87;;;12.17;;
23676;SDS011;31493;49.058;12.190;2023-05-06T00:20:00;19.80;;;12.32;;
23676;SDS011;31493;49.058;12.190;2023-05-06T00:22:29;16.15;;;12.23;;
23676;SDS011;31493;49.058;12.190;2023-05-06T00:24:56;14.10;;;11.10;;
23676;SDS011;31493;49.058;12.190;2023-05-06T00:27:23;12.27;;;10.55;;
23676;SDS011;31493;49.058;12.190;2023-05-06T00:29:50;13.73;;;10.40;;
23676;SDS011;31493;49.058;12.190;2023-05-06T00:32:17;14.48;;;10.45;;
23676;SDS011;31493;49.058;12.190;2023-05-06T00:34:44;14.52;;;9.55;;
23676;SDS011;31493;49.058;12.190;2023-05-06T00:37:11;12.43;;;9.57;;
23676;SDS011;31493;49.058;12.190;2023-05-06T00:39:39;13.95;;;8.95;;
23676;SDS011;31493;49.058;12.190;2023-05-06T00:42:06;12.45;;;9.07;;
23676;SDS011;31493;49.058;12.190;2023-05-06T00:44:33;10.18;;;8.52;;
23676;SDS011;31493;49.058;12.190;2023-05-06T00:47:00;13.85;;;9.85;;
23676;SDS011;31493;49.058;12.190;2023-05-06T00:49:28;12.32;;;9.15;;
23676;SDS011;31493;49.058;12.190;2023-05-06T00:51:55;12.30;;;9.50;;
23676;SDS011;31493;49.058;12.190;2023-05-06T00:54:23;14.73;;;9.50;;
23676;SDS011;31493;49.058;12.190;2023-05-06T00:56:51;11.43;;;9.43;;
23676;SDS011;31493;49.058;12.190;2023-05-06T00:59:19;10.95;;;8.85;;
23676;SDS011;31493;49.058;12.190;2023-05-06T01:01:47;12.00;;;9.23;;
23676;SDS011;31493;49.058;12.190;2023-05-06T01:04:14;10.05;;;7.90;;
23676;SDS011;31493;49.058;12.190;2023-05-06T01:06:43;9.90;;;7.80;;
23676;SDS011;31493;49.058;12.190;2023-05-06T01:09:18;11.32;;;7.75;;
23676;SDS011;31493;49.058;12.190;2023-05-06T01:11:48;13.98;;;8.05;;
23676;SDS011;31493;49.058;12.190;2023-05-06T01:14:20;9.38;;;7.85;;
23676;SDS011;31493;49.058;12.190;2023-05-06T01:16:55;9.82;;;8.77;;
23676;SDS011;31493;49.058;12.190;2023-05-06T01:19:32;10.63;;;7.78;;
23676;SDS011;31493;49.058;12.190;2023-05-06T01:22:06;11.57;;;8.02;;
23676;SDS011;31493;49.058;12.190;2023-05-06T01:24:36;10.38;;;7.43;;
23676;SDS011;31493;49.058;12.190;2023-05-06T01:27:03;10.80;;;7.68;;
23676;SDS011;31493;49.058;12.190;2023-05-06T01:29:30;10.48;;;8.25;;
23676;SDS011;31493;49.058;12.190;2023-05-06T01:32:01;10.75;;;7.70;;
23676;SDS011;31493;49.058;12.190;2023-05-06T01:34:40;10.80;;;8.23;;
23676;SDS011;31493;49.058;12.190;2023-05-06T01:37:13;9.60;;;7.35;;
23676;SDS011;31493;49.058;12.190;2023-05-06T01:39:48;10.32;;;7.72;;
23676;SDS011;31493;49.058;12.190;2023-05-06T01:42:17;10.93;;;7.78;;
23676;SDS011;31493;49.058;12.190;2023-05-06T01:44:46;11.60;;;7.35;;
23676;SDS011;31493;49.058;12.190;2023-05-06T01:47:15;8.77;;;7.15;;
23676;SDS011;31493;49.058;12.190;2023-05-06T01:49:43;10.02;;;7.40;;
23676;SDS011;31493;49.058;12.190;2023-05-06T01:52:10;10.80;;;7.55;;
23676;SDS011;31493;49.058;12.190;2023-05-06T01:54:37;9.48;;;7.50;;
23676;SDS011;31493;49.058;12.190;2023-05-06T01:57:05;9.98;;;7.70;;
23676;SDS011;31493;49.058;12.190;2023-05-06T01:59:32;10.13;;;7.75;;
23676;SDS011;31493;49.058;12.190;2023-05-06T02:01:59;10.32;;;7.30;;
23676;SDS011;31493;49.058;12.190;2023-05-06T02:04:26;11.70;;;8.65;;
23676;SDS011;31493;49.058;12.190;2023-05-06T02:06:53;9.15;;;7.63;;
23676;SDS011;31493;49.058;12.190;2023-05-06T02:09:21;11.65;;;7.85;;
23676;SDS011;31493;49.058;12.190;2023-05-06T02:11:48;10.93;;;7.70;;
23676;SDS011;31493;49.058;12.190;2023-05-06T02:14:17;11.18;;;8.40;;
23676;SDS011;31493;49.058;12.190;2023-05-06T02:16:44;12.63;;;9.15;;
23676;SDS011;31493;49.058;12.190;2023-05-06T02:19:11;10.75;;;8.75;;
23676;SDS011;31493;49.058;12.190;2023-05-06T02:21:38;11.45;;;8.75;;
23676;SDS011;31493;49.058;12.190;2023-05-06T02:24:05;13.25;;;8.77;;
23676;SDS011;31493;49.058;12.190;2023-05-06T02:26:32;10.10;;;8.05;;
23676;SDS011;31493;49.058;12.190;2023-05-06T02:28:59;11.98;;;8.88;;
23676;SDS011;31493;49.058;12.190;2023-05-06T02:31:27;14.85;;;9.82;;
23676;SDS011;31493;49.058;12.190;2023-05-06T02:33:54;12.30;;;9.75;;
23676;SDS011;31493;49.058;12.190;2023-05-06T02:36:21;11.50;;;8.60;;
23676;SDS011;31493;49.058;12.190;2023-05-06T02:38:48;10.07;;;8.60;;
23676;SDS011;31493;49.058;12.190;2023-05-06T02:41:15;10.32;;;8.63;;
23676;SDS011;31493;49.058;12.190;2023-05-06T02:43:42;44.97;;;9.23;;
23676;SDS011;31493;49.058;12.190;2023-05-06T02:46:09;14.20;;;8.02;;
23676;SDS011;31493;49.058;12.190;2023-05-06T02:48:37;10.95;;;7.85;;
23676;SDS011;31493;49.058;12.190;2023-05-06T02:51:05;10.25;;;8.20;;
23676;SDS011;31493;49.058;12.190;2023-05-06T02:53:32;11.98;;;8.90;;
23676;SDS011;31493;49.058;12.190;2023-05-06T02:55:59;14.60;;;9.45;;
23676;SDS011;31493;49.058;12.190;2023-05-06T02:58:26;11.35;;;8.80;;
23676;SDS011;31493;49.058;12.190;2023-05-06T03:00:53;12.10;;;9.15;;
23676;SDS011;31493;49.058;12.190;2023-05-06T03:03:20;10.93;;;9.13;;
23676;SDS011;31493;49.058;12.190;2023-05-06T03:05:49;11.23;;;9.55;;
23676;SDS011;31493;49.058;12.190;2023-05-06T03:08:16;12.63;;;9.55;;
23676;SDS011;31493;49.058;12.190;2023-05-06T03:10:43;12.02;;;8.95;;
23676;SDS011;31493;49.058;12.190;2023-05-06T03:13:10;16.45;;;10.90;;
23676;SDS011;31493;49.058;12.190;2023-05-06T03:15:37;13.32;;;9.55;;
23676;SDS011;31493;49.058;12.190;2023-05-06T03:18:04;12.63;;;9.55;;
23676;SDS011;31493;49.058;12.190;2023-05-06T03:20:31;12.23;;;8.38;;
23676;SDS011;31493;49.058;12.190;2023-05-06T03:22:59;13.45;;;9.00;;
23676;SDS011;31493;49.058;12.190;2023-05-06T03:25:26;11.90;;;8.90;;
23676;SDS011;31493;49.058;12.190;2023-05-06T03:27:53;10.85;;;8.48;;
23676;SDS011;31493;49.058;12.190;2023-05-06T03:30:20;12.27;;;9.20;;
23676;SDS011;31493;49.058;12.190;2023-05-06T03:32:47;10.90;;;8.40;;
23676;SDS011;31493;49.058;12.190;2023-05-06T03:35:14;14.70;;;9.30;;
23676;SDS011;31493;49.058;12.190;2023-05-06T03:37:42;14.05;;;8.95;;
23676;SDS011;31493;49.058;12.190;2023-05-06T03:40:10;13.07;;;9.50;;
23676;SDS011;31493;49.058;12.190;2023-05-06T03:42:38;12.05;;;9.68;;
23676;SDS011;31493;49.058;12.190;2023-05-06T03:45:05;12.13;;;8.95;;
23676;SDS011;31493;49.058;12.190;2023-05-06T03:47:33;11.30;;;9.73;;
23676;SDS011;31493;49.058;12.190;2023-05-06T03:50:00;14.02;;;9.20;;
23676;SDS011;31493;49.058;12.190;2023-05-06T03:52:27;11.57;;;9.18;;
23676;SDS011;31493;49.058;12.190;2023-05-06T03:54:55;13.27;;;10.37;;
23676;SDS011;31493;49.058;12.190;2023-05-06T03:57:24;13.20;;;11.02;;
23676;SDS011;31493;49.058;12.190;2023-05-06T03:59:51;13.85;;;10.90;;
23676;SDS011;31493;49.058;12.190;2023-05-06T04:02:18;10.48;;;9.15;;
23676;SDS011;31493;49.058;12.190;2023-05-06T04:04:45;12.90;;;9.70;;
23676;SDS011;31493;49.058;12.190;2023-05-06T04:07:12;15.88;;;9.25;;
23676;SDS011;31493;49.058;12.190;2023-05-06T04:09:39;13.98;;;10.07;;
23676;SDS011;31493;49.058;12.190;2023-05-06T04:12:06;15.70;;;10.63;;
23676;SDS011;31493;49.058;12.190;2023-05-06T04:14:34;11.98;;;9.95;;
23676;SDS011;31493;49.058;12.190;2023-05-06T04:17:01;11.52;;;9.57;;
23676;SDS011;31493;49.058;12.190;2023-05-06T04:19:28;13.23;;;10.60;;
23676;SDS011;31493;49.058;12.190;2023-05-06T04:21:56;13.25;;;10.57;;
23676;SDS011;31493;49.058;12.190;2023-05-06T04:24:24;13.52;;;10.95;;
23676;SDS011;31493;49.058;12.190;2023-05-06T04:26:52;18.67;;;10.10;;
23676;SDS011;31493;49.058;12.190;2023-05-06T04:29:20;13.70;;;10.02;;
23676;SDS011;31493;49.058;12.190;2023-05-06T04:31:48;12.80;;;9.75;;
23676;SDS011;31493;49.058;12.190;2023-05-06T04:36:42;11.15;;;9.70;;
23676;SDS011;31493;49.058;12.190;2023-05-06T04:39:10;11.57;;;9.60;;
23676;SDS011;31493;49.058;12.190;2023-05-06T04:41:37;12.02;;;9.77;;
23676;SDS011;31493;49.058;12.190;2023-05-06T04:44:04;13.80;;;10.45;;
23676;SDS011;31493;49.058;12.190;2023-05-06T04:46:31;13.57;;;10.70;;
23676;SDS011;31493;49.058;12.190;2023-05-06T04:49:00;15.70;;;11.68;;
23676;SDS011;31493;49.058;12.190;2023-05-06T04:51:27;16.67;;;11.82;;
23676;SDS011;31493;49.058;12.190;2023-05-06T04:53:54;17.70;;;12.30;;
23676;SDS011;31493;49.058;12.190;2023-05-06T04:56:21;12.90;;;11.48;;
23676;SDS011;31493;49.058;12.190;2023-05-06T04:58:48;13.45;;;11.55;;
23676;SDS011;31493;49.058;12.190;2023-05-06T05:01:15;19.92;;;12.80;;
23676;SDS011;31493;49.058;12.190;2023-05-06T05:03:43;18.85;;;13.60;;
23676;SDS011;31493;49.058;12.190;2023-05-06T05:06:12;14.52;;;12.05;;
23676;SDS011;31493;49.058;12.190;2023-05-06T05:08:39;16.35;;;12.90;;
23676;SDS011;31493;49.058;12.190;2023-05-06T05:11:07;19.67;;;12.73;;
23676;SDS011;31493;49.058;12.190;2023-05-06T05:13:34;15.52;;;12.68;;
23676;SDS011;31493;49.058;12.190;2023-05-06T05:16:01;14.85;;;11.93;;
23676;SDS011;31493;49.058;12.190;2023-05-06T05:18:29;15.25;;;12.15;;
23676;SDS011;31493;49.058;12.190;2023-05-06T05:20:56;16.38;;;12.55;;
23676;SDS011;31493;49.058;12.190;2023-05-06T05:23:24;17.23;;;12.88;;
23676;SDS011;31493;49.058;12.190;2023-05-06T05:25:51;14.38;;;11.65;;
23676;SDS011;31493;49.058;12.190;2023-05-06T05:28:18;14.45;;;11.90;;
23676;SDS011;31493;49.058;12.190;2023-05-06T05:30:45;16.30;;;12.43;;
23676;SDS011;31493;49.058;12.190;2023-05-06T05:33:12;15.07;;;12.48;;
23676;SDS011;31493;49.058;12.190;2023-05-06T05:35:39;16.65;;;12.70;;
23676;SDS011;31493;49.058;12.190;2023-05-06T05:38:06;14.75;;;12.32;;
23676;SDS011;31493;49.058;12.190;2023-05-06T05:40:35;14.85;;;12.40;;
23676;SDS011;31493;49.058;12.190;2023-05-06T05:43:02;17.25;;;13.98;;
23676;SDS011;31493;49.058;12.190;2023-05-06T05:45:29;14.65;;;13.15;;
23676;SDS011;31493;49.058;12.190;2023-05-06T05:47:56;15.90;;;13.93;;
23676;SDS011;31493;49.058;12.190;2023-05-06T05:50:23;19.33;;;14.35;;
23676;SDS011;31493;49.058;12.190;2023-05-06T05:52:50;17.05;;;13.45;;
23676;SDS011;31493;49.058;12.190;2023-05-06T05:55:17;18.30;;;14.27;;
23676;SDS011;31493;49.058;12.190;2023-05-06T05:57:46;18.50;;;14.98;;
23676;SDS011;31493;49.058;12.190;2023-05-06T06:00:13;16.45;;;13.10;;
23676;SDS011;31493;49.058;12.190;2023-05-06T06:02:41;19.23;;;13.75;;
23676;SDS011;31493;49.058;12.190;2023-05-06T06:05:08;18.33;;;13.43;;
23676;SDS011;31493;49.058;12.190;2023-05-06T06:07:35;16.02;;;12.60;;
23676;SDS011;31493;49.058;12.190;2023-05-06T06:10:02;17.90;;;13.88;;
23676;SDS011;31493;49.058;12.190;2023-05-06T06:12:29;15.48;;;13.55;;
23676;SDS011;31493;49.058;12.190;2023-05-06T06:14:58;21.42;;;15.65;;
23676;SDS011;31493;49.058;12.190;2023-05-06T06:17:25;15.88;;;13.43;;
23676;SDS011;31493;49.058;12.190;2023-05-06T06:19:52;16.63;;;14.77;;
23676;SDS011;31493;49.058;12.190;2023-05-06T06:22:21;17.33;;;14.73;;
23676;SDS011;31493;49.058;12.190;2023-05-06T06:24:48;18.35;;;14.32;;
23676;SDS011;31493;49.058;12.190;2023-05-06T06:27:18;17.70;;;14.88;;
23676;SDS011;31493;49.058;12.190;2023-05-06T06:29:46;16.65;;;14.25;;
23676;SDS011;31493;49.058;12.190;2023-05-06T06:32:14;17.58;;;14.35;;
23676;SDS011;31493;49.058;12.190;2023-05-06T06:34:42;20.30;;;14.38;;
23676;SDS011;31493;49.058;12.190;2023-05-06T06:37:09;18.67;;;16.02;;
23676;SDS011;31493;49.058;12.190;2023-05-06T06:39:36;18.23;;;15.32;;
23676;SDS011;31493;49.058;12.190;2023-05-06T06:42:03;17.17;;;14.00;;
23676;SDS011;31493;49.058;12.190;2023-05-06T06:44:31;21.13;;;16.35;;
23676;SDS011;31493;49.058;12.190;2023-05-06T06:46:59;19.65;;;15.15;;
23676;SDS011;31493;49.058;12.190;2023-05-06T06:49:27;20.83;;;16.20;;
23676;SDS011;31493;49.058;12.190;2023-05-06T06:51:54;18.13;;;14.85;;
23676;SDS011;31493;49.058;12.190;2023-05-06T06:54:22;19.23;;;14.73;;
23676;SDS011;31493;49.058;12.190;2023-05-06T06:56:52;21.52;;;16.35;;
23676;SDS011;31493;49.058;12.190;2023-05-06T06:59:19;19.85;;;16.02;;
23676;SDS011;31493;49.058;12.190;2023-05-06T07:01:46;21.98;;;16.65;;
23676;SDS011;31493;49.058;12.190;2023-05-06T07:04:14;19.08;;;15.63;;
23676;SDS011;31493;49.058;12.190;2023-05-06T07:06:43;19.50;;;15.38;;
23676;SDS011;31493;49.058;12.190;2023-05-06T07:09:11;18.52;;;15.23;;
23676;SDS011;31493;49.058;12.190;2023-05-06T07:11:38;18.00;;;16.08;;
23676;SDS011;31493;49.058;12.190;2023-05-06T07:14:05;19.55;;;15.75;;
23676;SDS011;31493;49.058;12.190;2023-05-06T07:16:32;18.85;;;15.40;;
23676;SDS011;31493;49.058;12.190;2023-05-06T07:18:59;19.00;;;14.55;;
23676;SDS011;31493;49.058;12.190;2023-05-06T07:21:27;17.02;;;14.93;;
23676;SDS011;31493;49.058;12.190;2023-05-06T07:23:58;17.38;;;14.65;;
23676;SDS011;31493;49.058;12.190;2023-05-06T07:26:28;17.13;;;13.77;;
23676;SDS011;31493;49.058;12.190;2023-05-06T07:28:55;21.60;;;15.18;;
23676;SDS011;31493;49.058;12.190;2023-05-06T07:31:22;16.77;;;14.80;;
23676;SDS011;31493;49.058;12.190;2023-05-06T07:33:49;17.25;;;14.10;;
23676;SDS011;31493;49.058;12.190;2023-05-06T07:36:16;20.77;;;14.70;;
23676;SDS011;31493;49.058;12.190;2023-05-06T07:38:43;18.13;;;15.32;;
23676;SDS011;31493;49.058;12.190;2023-05-06T07:41:11;19.13;;;15.60;;
23676;SDS011;31493;49.058;12.190;2023-05-06T07:43:38;18.23;;;13.68;;
23676;SDS011;31493;49.058;12.190;2023-05-06T07:46:05;16.70;;;14.90;;
23676;SDS011;31493;49.058;12.190;2023-05-06T07:48:32;18.90;;;15.07;;
23676;SDS011;31493;49.058;12.190;2023-05-06T07:50:59;17.45;;;15.50;;
23676;SDS011;31493;49.058;12.190;2023-05-06T07:53:27;20.88;;;14.70;;
23676;SDS011;31493;49.058;12.190;2023-05-06T07:55:54;16.73;;;13.40;;
23676;SDS011;31493;49.058;12.190;2023-05-06T08:00:51;16.38;;;13.50;;
23676;SDS011;31493;49.058;12.190;2023-05-06T08:03:18;20.27;;;14.65;;
23676;SDS011;31493;49.058;12.190;2023-05-06T08:05:45;17.67;;;13.52;;
23676;SDS011;31493;49.058;12.190;2023-05-06T08:08:12;18.10;;;13.40;;
23676;SDS011;31493;49.058;12.190;2023-05-06T08:10:39;18.77;;;14.52;;
23676;SDS011;31493;49.058;12.190;2023-05-06T08:13:06;16.92;;;13.75;;
23676;SDS011;31493;49.058;12.190;2023-05-06T08:15:34;19.83;;;14.40;;
23676;SDS011;31493;49.058;12.190;2023-05-06T08:18:01;16.13;;;13.73;;
23676;SDS011;31493;49.058;12.190;2023-05-06T08:20:29;17.67;;;13.25;;
23676;SDS011;31493;49.058;12.190;2023-05-06T08:22:56;17.33;;;13.77;;
23676;SDS011;31493;49.058;12.190;2023-05-06T08:25:25;15.77;;;13.30;;
23676;SDS011;31493;49.058;12.190;2023-05-06T08:27:52;15.75;;;12.52;;
23676;SDS011;31493;49.058;12.190;2023-05-06T08:30:19;14.52;;;11.82;;
23676;SDS011;31493;49.058;12.190;2023-05-06T08:32:47;14.43;;;11.52;;
23676;SDS011;31493;49.058;12.190;2023-05-06T08:35:14;15.60;;;11.10;;
23676;SDS011;31493;49.058;12.190;2023-05-06T08:37:41;13.95;;;11.55;;
23676;SDS011;31493;49.058;12.190;2023-05-06T08:40:13;15.93;;;11.63;;
23676;SDS011;31493;49.058;12.190;2023-05-06T08:42:44;11.98;;;10.68;;
23676;SDS011;31493;49.058;12.190;2023-05-06T08:45:12;14.85;;;10.02;;
23676;SDS011;31493;49.058;12.190;2023-05-06T08:47:39;12.00;;;9.52;;
23676;SDS011;31493;49.058;12.190;2023-05-06T08:50:09;12.30;;;9.40;;
23676;SDS011;31493;49.058;12.190;2023-05-06T08:52:36;13.40;;;11.10;;
23676;SDS011;31493;49.058;12.190;2023-05-06T08:55:04;14.65;;;9.80;;
23676;SDS011;31493;49.058;12.190;2023-05-06T08:57:32;12.98;;;9.23;;
23676;SDS011;31493;49.058;12.190;2023-05-06T09:00:00;11.90;;;8.80;;
23676;SDS011;31493;49.058;12.190;2023-05-06T09:02:29;12.50;;;7.90;;
23676;SDS011;31493;49.058;12.190;2023-05-06T09:04:56;8.77;;;7.10;;
23676;SDS011;31493;49.058;12.190;2023-05-06T09:07:24;11.25;;;7.80;;
23676;SDS011;31493;49.058;12.190;2023-05-06T09:09:51;10.77;;;8.68;;
23676;SDS011;31493;49.058;12.190;2023-05-06T09:12:18;10.63;;;7.65;;
23676;SDS011;31493;49.058;12.190;2023-05-06T09:14:48;7.50;;;6.80;;
23676;SDS011;31493;49.058;12.190;2023-05-06T09:17:16;9.95;;;7.32;;
23676;SDS011;31493;49.058;12.190;2023-05-06T09:19:49;6.45;;;5.78;;
23676;SDS011;31493;49.058;12.190;2023-05-06T09:22:17;7.22;;;5.57;;
23676;SDS011;31493;49.058;12.190;2023-05-06T09:24:48;5.78;;;5.15;;
23676;SDS011;31493;49.058;12.190;2023-05-06T09:27:21;5.03;;;4.53;;
23676;SDS011;31493;49.058;12.190;2023-05-06T09:29:59;8.48;;;5.43;;
23676;SDS011;31493;49.058;12.190;2023-05-06T09:32:27;6.45;;;4.65;;
23676;SDS011;31493;49.058;12.190;2023-05-06T09:34:54;7.90;;;4.30;;
23676;SDS011;31493;49.058;12.190;2023-05-06T09:37:21;5.47;;;4.30;;
23676;SDS011;31493;49.058;12.190;2023-05-06T09:39:49;8.85;;;4.68;;
23676;SDS011;31493;49.058;12.190;2023-05-06T09:42:20;8.32;;;4.90;;
23676;SDS011;31493;49.058;12.190;2023-05-06T09:44:48;7.00;;;4.47;;
23676;SDS011;31493;49.058;12.190;2023-05-06T09:47:16;5.35;;;4.30;;
23676;SDS011;31493;49.058;12.190;2023-05-06T09:49:44;5.90;;;3.92;;
23676;SDS011;31493;49.058;12.190;2023-05-06T09:52:11;6.13;;;3.40;;
23676;SDS011;31493;49.058;12.190;2023-05-06T09:54:39;8.25;;;4.10;;
23676;SDS011;31493;49.058;12.190;2023-05-06T09:57:08;7.88;;;3.35;;
23676;SDS011;31493;49.058;12.190;2023-05-06T09:59:35;5.95;;;3.10;;
23676;SDS011;31493;49.058;12.190;2023-05-06T10:02:03;43.65;;;13.75;;
23676;SDS011;31493;49.058;12.190;2023-05-06T10:04:30;9.05;;;3.78;;
23676;SDS011;31493;49.058;12.190;2023-05-06T10:07:00;7.25;;;2.70;;
23676;SDS011;31493;49.058;12.190;2023-05-06T10:09:28;4.53;;;2.47;;
23676;SDS011;31493;49.058;12.190;2023-05-06T10:11:56;13.65;;;4.78;;
23676;SDS011;31493;49.058;12.190;2023-05-06T10:14:26;4.10;;;2.05;;
23676;SDS011;31493;49.058;12.190;2023-05-06T10:16:54;6.93;;;2.13;;
23676;SDS011;31493;49.058;12.190;2023-05-06T10:19:22;4.72;;;1.58;;
23676;SDS011;31493;49.058;12.190;2023-05-06T10:21:53;3.30;;;1.75;;
23676;SDS011;31493;49.058;12.190;2023-05-06T10:24:26;3.00;;;1.70;;
23676;SDS011;31493;49.058;12.190;2023-05-06T10:26:58;5.30;;;1.60;;
23676;SDS011;31493;49.058;12.190;2023-05-06T10:29:30;16.63;;;4.25;;
23676;SDS011;31493;49.058;12.190;2023-05-06T10:32:01;4.93;;;2.50;;
23676;SDS011;31493;49.058;12.190;2023-05-06T10:34:30;6.35;;;1.13;;
23676;SDS011;31493;49.058;12.190;2023-05-06T10:37:03;4.65;;;1.23;;
23676;SDS011;31493;49.058;12.190;2023-05-06T10:39:31;2.28;;;1.25;;
23676;SDS011;31493;49.058;12.190;2023-05-06T10:41:59;4.68;;;1.10;;
23676;SDS011;31493;49.058;12.190;2023-05-06T10:47:26;2.05;;;1.00;;
23676;SDS011;31493;49.058;12.190;2023-05-06T10:52:47;2.88;;;1.20;;
23676;SDS011;31493;49.058;12.190;2023-05-06T10:55:25;3.90;;;1.13;;
23676;SDS011;31493;49.058;12.190;2023-05-06T10:57:54;2.92;;;1.45;;
23676;SDS011;31493;49.058;12.190;2023-05-06T11:00:23;1.87;;;1.27;;
23676;SDS011;31493;49.058;12.190;2023-05-06T11:02:54;3.58;;;1.50;;
23676;SDS011;31493;49.058;12.190;2023-05-06T11:05:22;2.55;;;1.20;;
23676;SDS011;31493;49.058;12.190;2023-05-06T11:07:50;4.00;;;1.52;;
23676;SDS011;31493;49.058;12.190;2023-05-06T11:10:30;3.15;;;1.17;;
23676;SDS011;31493;49.058;12.190;2023-05-06T11:13:16;2.78;;;1.20;;
23676;SDS011;31493;49.058;12.190;2023-05-06T11:15:47;4.00;;;1.23;;
23676;SDS011;31493;49.058;12.190;2023-05-06T11:21:33;1.35;;;1.00;;
23676;SDS011;31493;49.058;12.190;2023-05-06T11:24:08;2.42;;;1.25;;
23676;SDS011;31493;49.058;12.190;2023-05-06T11:26:36;4.85;;;1.40;;
23676;SDS011;31493;49.058;12.190;2023-05-06T11:29:05;1.83;;;1.10;;
23676;SDS011;31493;49.058;12.190;2023-05-06T11:31:37;2.25;;;1.10;;
23676;SDS011;31493;49.058;12.190;2023-05-06T11:34:07;2.30;;;1.20;;
23676;SDS011;31493;49.058;12.190;2023-05-06T11:39:10;5.25;;;1.25;;
23676;SDS011;31493;49.058;12.190;2023-05-06T11:41:37;1.85;;;1.10;;
23676;SDS011;31493;49.058;12.190;2023-05-06T11:44:06;2.05;;;1.02;;
23676;SDS011;31493;49.058;12.190;2023-05-06T11:46:34;2.20;;;1.10;;
23676;SDS011;31493;49.058;12.190;2023-05-06T11:49:02;1.67;;;1.13;;
23676;SDS011;31493;49.058;12.190;2023-05-06T11:51:29;2.70;;;1.40;;
23676;SDS011;31493;49.058;12.190;2023-05-06T11:54:04;2.95;;;1.40;;
23676;SDS011;31493;49.058;12.190;2023-05-06T11:56:45;4.60;;;1.20;;
23676;SDS011;31493;49.058;12.190;2023-05-06T11:59:13;3.90;;;1.17;;
23676;SDS011;31493;49.058;12.190;2023-05-06T12:01:41;3.75;;;1.30;;
23676;SDS011;31493;49.058;12.190;2023-05-06T12:04:10;3.65;;;1.20;;
23676;SDS011;31493;49.058;12.190;2023-05-06T12:06:38;2.78;;;1.30;;
23676;SDS011;31493;49.058;12.190;2023-05-06T12:09:06;1.70;;;1.10;;
23676;SDS011;31493;49.058;12.190;2023-05-06T12:11:35;2.83;;;1.35;;
23676;SDS011;31493;49.058;12.190;2023-05-06T12:14:04;1.88;;;1.10;;
23676;SDS011;31493;49.058;12.190;2023-05-06T12:18:59;1.65;;;1.00;;
23676;SDS011;31493;49.058;12.190;2023-05-06T12:21:28;2.30;;;1.00;;
23676;SDS011;31493;49.058;12.190;2023-05-06T12:23:56;1.80;;;0.95;;
23676;SDS011;31493;49.058;12.190;2023-05-06T12:26:25;1.55;;;0.95;;
23676;SDS011;31493;49.058;12.190;2023-05-06T12:29:03;1.20;;;0.85;;
23676;SDS011;31493;49.058;12.190;2023-05-06T12:31:31;1.85;;;0.90;;
23676;SDS011;31493;49.058;12.190;2023-05-06T12:33:59;3.47;;;0.90;;
23676;SDS011;31493;49.058;12.190;2023-05-06T12:36:27;1.98;;;1.25;;
23676;SDS011;31493;49.058;12.190;2023-05-06T12:38:55;3.60;;;1.38;;
23676;SDS011;31493;49.058;12.190;2023-05-06T12:41:33;4.50;;;1.23;;
23676;SDS011;31493;49.058;12.190;2023-05-06T12:44:02;2.38;;;0.90;;
23676;SDS011;31493;49.058;12.190;2023-05-06T12:46:29;2.03;;;1.00;;
23676;SDS011;31493;49.058;12.190;2023-05-06T12:48:57;1.83;;;1.00;;
23676;SDS011;31493;49.058;12.190;2023-05-06T12:51:24;3.30;;;0.93;;
23676;SDS011;31493;49.058;12.190;2023-05-06T12:53:53;2.08;;;1.30;;
23676;SDS011;31493;49.058;12.190;2023-05-06T12:56:20;1.42;;;0.85;;
23676;SDS011;31493;49.058;12.190;2023-05-06T12:58:54;3.17;;;0.77;;
23676;SDS011;31493;49.058;12.190;2023-05-06T13:01:22;2.78;;;0.98;;
23676;SDS011;31493;49.058;12.190;2023-05-06T13:03:49;1.98;;;1.17;;
23676;SDS011;31493;49.058;12.190;2023-05-06T13:06:16;2.70;;;1.10;;
23676;SDS011;31493;49.058;12.190;2023-05-06T13:08:43;1.63;;;0.98;;
23676;SDS011;31493;49.058;12.190;2023-05-06T13:11:12;1.10;;;1.00;;
23676;SDS011;31493;49.058;12.190;2023-05-06T13:13:39;2.30;;;1.33;;
23676;SDS011;31493;49.058;12.190;2023-05-06T13:16:06;4.63;;;1.00;;
23676;SDS011;31493;49.058;12.190;2023-05-06T13:18:34;2.40;;;1.10;;
23676;SDS011;31493;49.058;12.190;2023-05-06T13:21:01;2.40;;;1.23;;
23676;SDS011;31493;49.058;12.190;2023-05-06T13:23:29;1.17;;;0.80;;
23676;SDS011;31493;49.058;12.190;2023-05-06T13:26:00;2.88;;;1.02;;
23676;SDS011;31493;49.058;12.190;2023-05-06T13:28:31;1.73;;;1.00;;
23676;SDS011;31493;49.058;12.190;2023-05-06T13:31:02;2.22;;;1.10;;
23676;SDS011;31493;49.058;12.190;2023-05-06T13:33:29;4.13;;;1.15;;
23676;SDS011;31493;49.058;12.190;2023-05-06T13:35:56;4.43;;;1.10;;
23676;SDS011;31493;49.058;12.190;2023-05-06T13:38:23;1.58;;;0.93;;
23676;SDS011;31493;49.058;12.190;2023-05-06T13:40:50;1.90;;;1.13;;
23676;SDS011;31493;49.058;12.190;2023-05-06T13:43:18;1.67;;;0.90;;
23676;SDS011;31493;49.058;12.190;2023-05-06T13:45:47;5.07;;;1.10;;
23676;SDS011;31493;49.058;12.190;2023-05-06T13:48:14;1.90;;;0.95;;
23676;SDS011;31493;49.058;12.190;2023-05-06T13:50:42;2.70;;;1.20;;
23676;SDS011;31493;49.058;12.190;2023-05-06T13:53:10;4.63;;;1.00;;
23676;SDS011;31493;49.058;12.190;2023-05-06T13:55:39;1.63;;;1.00;;
23676;SDS011;31493;49.058;12.190;2023-05-06T13:58:06;2.78;;;1.33;;
23676;SDS011;31493;49.058;12.190;2023-05-06T14:00:34;2.20;;;0.98;;
23676;SDS011;31493;49.058;12.190;2023-05-06T14:03:02;1.98;;;1.08;;
23676;SDS011;31493;49.058;12.190;2023-05-06T14:05:30;1.55;;;0.90;;
23676;SDS011;31493;49.058;12.190;2023-05-06T14:07:57;2.83;;;1.20;;
23676;SDS011;31493;49.058;12.190;2023-05-06T14:10:25;2.67;;;2.00;;
23676;SDS011;31493;49.058;12.190;2023-05-06T14:12:52;3.13;;;1.27;;
23676;SDS011;31493;49.058;12.190;2023-05-06T14:15:19;3.38;;;1.38;;
23676;SDS011;31493;49.058;12.190;2023-05-06T14:17:46;3.58;;;1.58;;
23676;SDS011;31493;49.058;12.190;2023-05-06T14:20:14;2.90;;;1.20;;
23676;SDS011;31493;49.058;12.190;2023-05-06T14:22:42;2.83;;;1.63;;
23676;SDS011;31493;49.058;12.190;2023-05-06T14:25:09;5.07;;;2.03;;
23676;SDS011;31493;49.058;12.190;2023-05-06T14:27:36;5.13;;;1.90;;
23676;SDS011;31493;49.058;12.190;2023-05-06T14:30:03;3.88;;;1.60;;
23676;SDS011;31493;49.058;12.190;2023-05-06T14:32:31;3.03;;;1.10;;
23676;SDS011;31493;49.058;12.190;2023-05-06T14:34:59;1.95;;;1.10;;
23676;SDS011;31493;49.058;12.190;2023-05-06T14:37:27;2.10;;;1.20;;
23676;SDS011;31493;49.058;12.190;2023-05-06T14:39:55;3.72;;;1.20;;
23676;SDS011;31493;49.058;12.190;2023-05-06T14:42:22;2.58;;;1.20;;
23676;SDS011;31493;49.058;12.190;2023-05-06T14:44:49;1.77;;;1.17;;